createdAt,value
2023-02-14T00:01:29.045Z,64.31
2023-02-14T00:04:00.629Z,64.79
2023-02-14T00:06:29.912Z,65.42
2023-02-14T00:08:57.986Z,64.76
2023-02-14T00:11:26.022Z,65.86
2023-02-14T00:14:12.594Z,65.88
2023-02-14T00:16:40.562Z,65.11
2023-02-14T00:19:08.821Z,65.38
2023-02-14T00:21:38.377Z,65.60
2023-02-14T00:24:08.571Z,66.34
2023-02-14T00:26:38.717Z,66.36
2023-02-14T00:29:09.419Z,66.92
2023-02-14T00:31:37.532Z,66.02
2023-02-14T00:34:05.801Z,66.00
2023-02-14T00:36:34.362Z,66.55
2023-02-14T00:39:03.357Z,66.08
2023-02-14T00:41:31.540Z,66.10
2023-02-14T00:43:59.903Z,66.26
2023-02-14T00:46:29.726Z,66.73
2023-02-14T00:48:57.897Z,66.74
2023-02-14T00:51:26.369Z,66.25
2023-02-14T00:53:54.591Z,66.14
2023-02-14T00:56:22.728Z,66.59
2023-02-14T00:58:50.856Z,66.43
2023-02-14T01:01:19.507Z,66.52
2023-02-14T01:03:49.203Z,66.82
2023-02-14T01:06:19.764Z,66.12
2023-02-14T01:08:47.792Z,65.96
2023-02-14T01:11:18.270Z,66.65
2023-02-14T01:13:49.049Z,66.88
2023-02-14T01:16:20.804Z,66.08
2023-02-14T01:18:50.755Z,66.71
2023-02-14T01:21:21.569Z,65.60
2023-02-14T01:23:52.702Z,66.47
2023-02-14T01:26:21.981Z,66.65
2023-02-14T01:28:50.368Z,66.23
2023-02-14T01:31:21.626Z,65.26
2023-02-14T01:33:52.660Z,64.99
2023-02-14T01:36:23.188Z,65.77
2023-02-14T01:38:53.412Z,66.08
2023-02-14T01:41:21.738Z,65.54
2023-02-14T01:43:59.842Z,65.73
2023-02-14T01:46:31.433Z,65.26
2023-02-14T01:49:04.872Z,66.13
2023-02-14T01:51:35.836Z,66.38
2023-02-14T01:54:06.545Z,66.00
2023-02-14T01:56:38.873Z,65.65
2023-02-14T01:59:09.672Z,65.61
2023-02-14T02:01:37.954Z,66.14
2023-02-14T02:04:11.395Z,66.58
2023-02-14T02:06:43.285Z,66.37
2023-02-14T02:09:16.435Z,66.76
2023-02-14T02:11:45.002Z,66.41
2023-02-14T02:14:16.105Z,66.22
2023-02-14T02:17:04.822Z,66.71
2023-02-14T02:20:14.458Z,66.35
2023-02-14T02:23:17.398Z,66.69
2023-02-14T02:26:09.109Z,66.48
2023-02-14T02:29:09.670Z,67.45
2023-02-14T02:32:13.769Z,66.08
2023-02-14T02:38:07.730Z,66.06
2023-02-14T02:40:47.863Z,66.10
2023-02-14T02:43:31.449Z,66.12
2023-02-14T02:46:21.913Z,66.58
2023-02-14T02:48:57.458Z,66.77
2023-02-14T02:51:51.421Z,65.82
2023-02-14T02:54:30.235Z,66.61
2023-02-14T02:57:01.631Z,67.35
2023-02-14T02:59:32.322Z,67.73
2023-02-14T03:02:12.665Z,67.37
2023-02-14T03:04:56.033Z,66.76
2023-02-14T03:07:39.147Z,66.12
2023-02-14T03:10:14.210Z,66.80
2023-02-14T03:13:04.670Z,66.08
2023-02-14T03:15:46.296Z,66.30
2023-02-14T03:18:48.330Z,66.91
2023-02-14T03:21:25.713Z,66.76
2023-02-14T03:24:04.904Z,66.92
2023-02-14T03:26:41.011Z,66.82
2023-02-14T03:29:16.879Z,67.06
2023-02-14T03:31:53.387Z,67.04
2023-02-14T03:34:27.416Z,67.00
2023-02-14T03:36:59.872Z,66.58
2023-02-14T03:39:31.867Z,66.69
2023-02-14T03:42:06.811Z,66.47
2023-02-14T03:44:36.751Z,66.45
2023-02-14T03:47:09.940Z,66.27
2023-02-14T03:49:43.247Z,66.38
2023-02-14T03:52:13.428Z,67.06
2023-02-14T03:54:41.890Z,66.36
2023-02-14T03:57:17.774Z,66.53
2023-02-14T03:59:45.891Z,66.60
2023-02-14T04:02:18.844Z,66.05
2023-02-14T04:04:49.243Z,66.14
2023-02-14T04:07:20.419Z,66.57
2023-02-14T04:09:48.945Z,67.12
2023-02-14T04:12:32.371Z,67.25
2023-02-14T04:15:05.369Z,67.28
2023-02-14T04:17:50.571Z,66.47
2023-02-14T04:20:18.596Z,67.58
2023-02-14T04:22:47.335Z,67.16
2023-02-14T04:25:15.698Z,67.09
2023-02-14T04:27:45.419Z,67.32
2023-02-14T04:30:14.978Z,67.01
2023-02-14T04:32:42.980Z,67.21
2023-02-14T04:35:11.399Z,66.72
2023-02-14T04:37:39.592Z,66.72
2023-02-14T04:40:09.069Z,66.44
2023-02-14T04:42:37.013Z,66.64
2023-02-14T04:45:06.906Z,65.79
2023-02-14T04:47:34.919Z,66.78
2023-02-14T04:50:03.194Z,66.67
2023-02-14T04:52:31.171Z,66.29
2023-02-14T04:54:59.275Z,66.06
2023-02-14T04:57:27.235Z,66.17
2023-02-14T04:59:55.192Z,66.62
2023-02-14T05:02:24.678Z,65.86
2023-02-14T05:04:52.685Z,66.70
2023-02-14T05:07:20.705Z,66.24
2023-02-14T05:09:48.804Z,66.12
2023-02-14T05:12:17.037Z,65.67
2023-02-14T05:14:45.003Z,66.25
2023-02-14T05:17:12.983Z,65.50
2023-02-14T05:19:42.320Z,65.78
2023-02-14T05:22:10.657Z,65.75
2023-02-14T05:24:38.603Z,65.67
2023-02-14T05:27:07.592Z,65.69
2023-02-14T05:29:35.580Z,65.49
2023-02-14T05:32:03.574Z,65.83
2023-02-14T05:34:31.732Z,65.61
2023-02-14T05:37:02.509Z,65.49
2023-02-14T05:39:30.716Z,66.25
2023-02-14T05:41:59.479Z,65.81
2023-02-14T05:44:27.588Z,65.73
2023-02-14T05:46:55.655Z,66.33
2023-02-14T05:49:23.615Z,66.68
2023-02-14T05:51:51.583Z,66.66
2023-02-14T05:54:20.919Z,66.78
2023-02-14T05:56:48.923Z,66.69
2023-02-14T05:59:17.031Z,66.65
2023-02-14T06:01:45.049Z,67.38
2023-02-14T06:04:13.097Z,67.06
2023-02-14T06:06:41.327Z,67.53
2023-02-14T06:09:09.397Z,67.96
2023-02-14T06:11:38.777Z,67.91
2023-02-14T06:14:06.790Z,67.80
2023-02-14T06:16:34.748Z,67.50
2023-02-14T06:19:02.753Z,67.27
2023-02-14T06:21:30.706Z,66.75
2023-02-14T06:23:58.717Z,67.15
2023-02-14T06:26:27.930Z,66.82
2023-02-14T06:28:57.956Z,66.99
2023-02-14T06:31:26.556Z,67.46
2023-02-14T06:33:54.858Z,67.15
2023-02-14T06:36:23.838Z,67.31
2023-02-14T06:38:51.870Z,67.34
2023-02-14T06:41:19.887Z,67.17
2023-02-14T06:43:49.678Z,66.85
2023-02-14T06:46:20.077Z,67.01
2023-02-14T06:48:48.289Z,66.61
2023-02-14T06:51:16.573Z,66.36
2023-02-14T06:53:44.565Z,65.84
2023-02-14T06:56:12.572Z,65.98
2023-02-14T06:58:40.692Z,65.42
2023-02-14T07:01:08.697Z,66.06
2023-02-14T07:03:38.120Z,65.82
2023-02-14T07:06:06.490Z,66.13
2023-02-14T07:08:34.539Z,66.19
2023-02-14T07:11:02.921Z,65.74
2023-02-14T07:13:30.989Z,65.98
2023-02-14T07:15:59.052Z,66.07
2023-02-14T07:18:27.121Z,66.70
2023-02-14T07:20:56.658Z,66.48
2023-02-14T07:23:24.704Z,66.38
2023-02-14T07:25:52.661Z,66.41
2023-02-14T07:28:20.694Z,66.08
2023-02-14T07:30:48.733Z,67.39
2023-02-14T07:33:16.770Z,68.05
2023-02-14T07:35:44.759Z,67.65
2023-02-14T07:38:14.123Z,67.26
2023-02-14T07:40:42.123Z,66.95
2023-02-14T07:43:10.100Z,66.79
2023-02-14T07:45:38.030Z,66.70
2023-02-14T07:48:06.075Z,65.63
2023-02-14T07:50:34.096Z,66.38
2023-02-14T07:53:02.016Z,67.03
2023-02-14T07:55:31.329Z,66.85
2023-02-14T07:57:59.308Z,67.08
2023-02-14T08:00:27.458Z,66.81
2023-02-14T08:02:56.089Z,66.93
2023-02-14T08:05:24.375Z,66.68
2023-02-14T08:07:52.426Z,66.97
2023-02-14T08:10:20.489Z,66.55
2023-02-14T08:13:03.462Z,66.68
2023-02-14T08:15:50.227Z,66.36
2023-02-14T08:18:19.671Z,68.32
2023-02-14T08:20:49.856Z,69.28
2023-02-14T08:23:18.424Z,69.54
2023-02-14T08:25:47.203Z,68.75
2023-02-14T08:28:16.929Z,68.54
2023-02-14T08:30:46.069Z,68.26
2023-02-14T08:33:14.213Z,68.38
2023-02-14T08:35:42.337Z,68.23
2023-02-14T08:38:11.066Z,68.11
2023-02-14T08:40:39.184Z,68.16
2023-02-14T08:43:07.785Z,68.34
2023-02-14T08:45:37.891Z,68.41
2023-02-14T08:48:08.374Z,66.97
2023-02-14T08:50:37.007Z,66.81
2023-02-14T08:53:08.654Z,66.85
2023-02-14T08:55:37.343Z,67.78
2023-02-14T08:58:06.485Z,66.66
2023-02-14T09:00:35.462Z,67.71
2023-02-14T09:03:05.044Z,66.91
2023-02-14T09:05:34.185Z,65.90
2023-02-14T09:08:03.701Z,66.43
2023-02-14T09:10:31.733Z,66.59
2023-02-14T09:12:59.754Z,66.40
2023-02-14T09:15:27.781Z,65.68
2023-02-14T09:17:55.736Z,66.22
2023-02-14T09:20:25.198Z,66.08
2023-02-14T09:22:56.265Z,65.42
2023-02-14T09:25:24.354Z,65.14
2023-02-14T09:27:52.374Z,65.38
2023-02-14T09:30:20.408Z,64.70
2023-02-14T09:32:48.389Z,65.09
2023-02-14T09:35:16.708Z,64.10
2023-02-14T09:38:03.544Z,64.11
2023-02-14T09:40:33.676Z,64.13
2023-02-14T09:43:07.358Z,62.54
2023-02-14T09:45:36.519Z,63.12
2023-02-14T09:48:09.135Z,62.17
2023-02-14T09:50:43.575Z,62.43
2023-02-14T09:53:22.827Z,61.78
2023-02-14T09:55:57.537Z,61.57
2023-02-14T09:58:31.377Z,60.99
2023-02-14T10:01:06.367Z,61.08
2023-02-14T10:03:59.508Z,60.29
2023-02-14T10:06:45.004Z,59.60
2023-02-14T10:09:23.805Z,60.58
2023-02-14T10:11:52.254Z,60.46
2023-02-14T10:14:23.817Z,60.79
2023-02-14T10:16:57.527Z,60.68
2023-02-14T10:19:30.022Z,60.02
2023-02-14T10:22:02.515Z,59.67
2023-02-14T10:24:37.198Z,59.69
2023-02-14T10:27:12.578Z,59.32
2023-02-14T10:29:42.123Z,59.14
2023-02-14T10:32:15.567Z,58.74
2023-02-14T10:34:49.218Z,58.09
2023-02-14T10:37:31.601Z,57.87
2023-02-14T10:40:24.668Z,57.75
2023-02-14T10:43:00.600Z,58.14
2023-02-14T10:45:37.161Z,58.26
2023-02-14T10:48:18.105Z,58.26
2023-02-14T10:50:54.166Z,58.21
2023-02-14T10:53:29.217Z,58.31
2023-02-14T10:56:04.113Z,58.34
2023-02-14T10:58:37.115Z,57.93
2023-02-14T11:01:09.445Z,57.72
2023-02-14T11:03:42.201Z,57.37
2023-02-14T11:06:12.783Z,56.56
2023-02-14T11:08:42.543Z,56.38
2023-02-14T11:11:21.328Z,55.77
2023-02-14T11:13:49.399Z,55.82
2023-02-14T11:16:30.801Z,55.38
2023-02-14T11:19:11.809Z,54.86
2023-02-14T11:21:41.025Z,55.40
2023-02-14T11:24:19.050Z,54.73
2023-02-14T11:26:53.085Z,54.28
2023-02-14T11:29:28.636Z,53.57
2023-02-14T11:31:57.571Z,53.15
2023-02-14T11:34:34.057Z,53.01
2023-02-14T11:37:02.337Z,54.26
2023-02-14T11:39:32.808Z,54.05
2023-02-14T11:42:05.169Z,53.13
2023-02-14T11:44:36.961Z,53.96
2023-02-14T11:47:26.254Z,52.00
2023-02-14T11:50:01.112Z,52.43
2023-02-14T11:52:31.204Z,52.85
2023-02-14T11:55:00.273Z,52.59
2023-02-14T11:57:33.756Z,51.47
2023-02-14T12:00:05.986Z,51.55
2023-02-14T12:02:43.043Z,51.97
2023-02-14T12:05:20.403Z,51.85
2023-02-14T12:07:51.025Z,51.22
2023-02-14T12:10:28.565Z,50.90
2023-02-14T12:13:00.787Z,51.13
2023-02-14T12:15:34.549Z,52.08
2023-02-14T12:18:18.832Z,52.08
2023-02-14T12:20:53.908Z,52.40
2023-02-14T12:23:28.485Z,52.82
2023-02-14T12:26:03.550Z,51.95
2023-02-14T12:28:40.264Z,53.35
2023-02-14T12:31:12.525Z,53.27
2023-02-14T12:33:41.116Z,52.69
2023-02-14T12:36:17.790Z,52.90
2023-02-14T12:38:57.124Z,52.86
2023-02-14T12:41:38.897Z,52.40
2023-02-14T12:44:17.412Z,52.97
2023-02-14T12:47:02.861Z,52.50
2023-02-14T12:49:49.607Z,52.83
2023-02-14T12:52:34.955Z,53.15
2023-02-14T12:55:20.713Z,52.39
2023-02-14T12:57:55.415Z,52.97
2023-02-14T13:00:35.833Z,52.52
2023-02-14T13:03:31.500Z,52.01
2023-02-14T13:06:03.242Z,53.02
2023-02-14T13:08:48.135Z,52.34
2023-02-14T13:11:25.020Z,52.40
2023-02-14T13:14:04.464Z,52.48
2023-02-14T13:16:40.783Z,52.00
2023-02-14T13:19:17.981Z,52.21
2023-02-14T13:21:46.873Z,52.70
2023-02-14T13:24:20.202Z,52.41
2023-02-14T13:26:53.879Z,52.16
2023-02-14T13:29:24.758Z,51.70
2023-02-14T13:31:59.013Z,51.55
2023-02-14T13:34:33.836Z,52.36
2023-02-14T13:37:04.951Z,51.57
2023-02-14T13:39:38.403Z,51.10
2023-02-14T13:42:07.669Z,50.88
2023-02-14T13:44:53.665Z,49.59
2023-02-14T13:47:24.298Z,50.25
2023-02-14T13:49:56.331Z,49.58
2023-02-14T13:52:44.441Z,48.63
2023-02-14T13:55:18.963Z,48.57
2023-02-14T13:58:36.532Z,47.59
2023-02-14T14:01:34.169Z,47.04
2023-02-14T14:04:06.262Z,47.77
2023-02-14T14:07:07.364Z,47.51
2023-02-14T14:09:58.916Z,45.23
2023-02-14T14:12:43.952Z,44.60
2023-02-14T14:15:21.611Z,44.42
2023-02-14T14:18:05.776Z,45.89
2023-02-14T14:20:48.392Z,45.23
2023-02-14T14:23:35.080Z,43.44
2023-02-14T14:26:03.608Z,44.67
2023-02-14T14:28:34.250Z,43.81
2023-02-14T14:31:02.376Z,44.32
2023-02-14T14:33:32.375Z,43.85
2023-02-14T14:36:06.068Z,43.47
2023-02-14T14:38:46.600Z,43.56
2023-02-14T14:41:14.983Z,43.39
2023-02-14T14:43:43.387Z,43.20
2023-02-14T14:46:14.355Z,42.82
2023-02-14T14:48:45.450Z,42.32
2023-02-14T14:51:23.580Z,41.72
2023-02-14T14:53:55.819Z,42.17
2023-02-14T14:56:25.648Z,41.66
2023-02-14T14:58:54.554Z,42.13
2023-02-14T15:01:38.432Z,40.70
2023-02-14T15:04:12.436Z,41.14
2023-02-14T15:06:42.235Z,41.09
2023-02-14T15:09:16.018Z,40.77
2023-02-14T15:12:03.646Z,40.97
2023-02-14T15:14:35.650Z,40.05
2023-02-14T15:17:05.414Z,40.48
2023-02-14T15:19:38.667Z,39.83
2023-02-14T15:22:19.393Z,39.36
2023-02-14T15:24:47.959Z,39.69
2023-02-14T15:27:18.576Z,39.91
2023-02-14T15:29:56.556Z,38.80
2023-02-14T15:32:25.507Z,39.27
2023-02-14T15:34:54.413Z,39.19
2023-02-14T15:37:25.561Z,38.64
2023-02-14T15:39:56.776Z,39.61
2023-02-14T15:42:29.295Z,38.67
2023-02-14T15:45:15.698Z,38.11
2023-02-14T15:47:46.432Z,39.79
2023-02-14T15:50:16.578Z,40.46
2023-02-14T15:52:46.943Z,40.45
2023-02-14T15:55:19.425Z,40.73
2023-02-14T15:57:54.722Z,40.67
2023-02-14T16:00:24.500Z,40.02
2023-02-14T16:02:55.357Z,40.64
2023-02-14T16:05:25.725Z,40.51
2023-02-14T16:08:04.714Z,40.75
2023-02-14T16:10:34.516Z,41.38
2023-02-14T16:13:06.563Z,41.08
2023-02-14T16:15:36.627Z,41.79
2023-02-14T16:18:17.541Z,42.15
2023-02-14T16:20:47.052Z,42.82
2023-02-14T16:23:18.808Z,43.24
2023-02-14T16:25:47.743Z,43.02
2023-02-14T16:28:16.747Z,43.27
2023-02-14T16:30:46.293Z,43.71
2023-02-14T16:33:19.601Z,44.18
2023-02-14T16:35:47.846Z,44.37
2023-02-14T16:38:20.788Z,44.30
2023-02-14T16:40:52.895Z,44.89
2023-02-14T16:43:22.364Z,45.00
2023-02-14T16:45:50.537Z,45.44
2023-02-14T16:48:18.500Z,46.63
2023-02-14T16:50:47.566Z,47.02
2023-02-14T16:53:27.138Z,47.63
2023-02-14T16:55:57.107Z,48.05
2023-02-14T16:58:33.119Z,48.27
2023-02-14T17:01:01.523Z,48.57
2023-02-14T17:03:29.653Z,49.45
2023-02-14T17:05:58.855Z,50.22
2023-02-14T17:08:29.605Z,50.72
2023-02-14T17:11:01.456Z,51.08
2023-02-14T17:13:33.503Z,50.56
2023-02-14T17:16:02.581Z,50.84
2023-02-14T17:18:36.043Z,50.73
2023-02-14T17:21:05.822Z,50.84
2023-02-14T17:23:35.141Z,51.34
2023-02-14T17:26:03.871Z,51.47
2023-02-14T17:28:31.844Z,51.23
2023-02-14T17:31:00.923Z,51.44
2023-02-14T17:33:30.482Z,51.11
2023-02-14T17:36:05.259Z,52.31
2023-02-14T17:38:33.503Z,52.14
2023-02-14T17:41:11.895Z,51.62
2023-02-14T17:43:39.896Z,52.41
2023-02-14T17:46:07.959Z,52.33
2023-02-14T17:48:36.024Z,52.10
2023-02-14T17:51:07.898Z,51.70
2023-02-14T17:53:36.561Z,51.37
2023-02-14T17:56:07.372Z,50.76
2023-02-14T17:58:35.971Z,50.45
2023-02-14T18:01:05.604Z,51.47
2023-02-14T18:03:34.545Z,51.65
2023-02-14T18:06:03.536Z,51.55
2023-02-14T18:08:33.327Z,52.67
2023-02-14T18:11:01.746Z,51.60
2023-02-14T18:13:31.743Z,53.69
2023-02-14T18:16:02.601Z,53.61
2023-02-14T18:18:31.327Z,53.90
2023-02-14T18:21:01.561Z,53.50
2023-02-14T18:23:31.360Z,54.35
2023-02-14T18:26:01.132Z,54.53
2023-02-14T18:28:31.215Z,54.05
2023-02-14T18:31:04.527Z,54.30
2023-02-14T18:33:32.585Z,54.50
2023-02-14T18:36:02.740Z,53.75
2023-02-14T18:38:30.721Z,53.84
2023-02-14T18:41:03.380Z,53.90
2023-02-14T18:43:32.799Z,54.61
2023-02-14T18:46:04.489Z,54.70
2023-02-14T18:48:32.936Z,54.65
2023-02-14T18:51:07.155Z,55.12
2023-02-14T18:53:35.180Z,55.14
2023-02-14T18:56:05.424Z,54.93
2023-02-14T18:58:35.304Z,55.30
2023-02-14T19:01:09.410Z,55.31
2023-02-14T19:03:37.764Z,56.34
2023-02-14T19:06:06.754Z,56.31
2023-02-14T19:08:35.615Z,56.12
2023-02-14T19:11:03.661Z,57.14
2023-02-14T19:13:32.253Z,57.05
2023-02-14T19:16:01.829Z,56.98
2023-02-14T19:18:29.844Z,57.32
2023-02-14T19:20:57.801Z,57.48
2023-02-14T19:23:25.933Z,57.74
2023-02-14T19:25:54.712Z,57.59
2023-02-14T19:28:22.859Z,57.11
2023-02-14T19:30:50.850Z,57.60
2023-02-14T19:33:21.178Z,57.79
2023-02-14T19:35:50.213Z,57.57
2023-02-14T19:38:18.151Z,58.03
2023-02-14T19:40:46.226Z,57.53
2023-02-14T19:43:14.184Z,58.01
2023-02-14T19:45:42.175Z,58.40
2023-02-14T19:48:10.278Z,58.31
2023-02-14T19:50:40.801Z,58.40
2023-02-14T19:53:08.826Z,58.72
2023-02-14T19:55:36.787Z,58.81
2023-02-14T19:58:04.853Z,59.63
2023-02-14T20:00:33.210Z,58.96
2023-02-14T20:03:01.787Z,58.98
2023-02-14T20:05:29.809Z,59.43
2023-02-14T20:07:59.392Z,60.04
2023-02-14T20:10:27.368Z,60.32
2023-02-14T20:12:55.364Z,60.41
2023-02-14T20:15:23.311Z,60.48
2023-02-14T20:17:51.875Z,60.35
2023-02-14T20:20:21.523Z,60.40
2023-02-14T20:22:49.521Z,60.46
2023-02-14T20:25:18.991Z,60.50
2023-02-14T20:27:46.938Z,60.52
2023-02-14T20:30:20.682Z,60.50
2023-02-14T20:32:48.844Z,60.76
2023-02-14T20:35:17.052Z,60.67
2023-02-14T20:37:45.028Z,60.95
2023-02-14T20:40:13.989Z,60.87
2023-02-14T20:42:43.364Z,61.09
2023-02-14T20:45:11.375Z,60.79
2023-02-14T20:47:39.369Z,60.69
2023-02-14T20:50:08.696Z,60.71
2023-02-14T20:52:37.250Z,60.86
2023-02-14T20:55:05.874Z,61.08
2023-02-14T20:57:33.870Z,61.42
2023-02-14T21:00:03.334Z,61.37
2023-02-14T21:02:31.320Z,61.48
2023-02-14T21:05:00.324Z,61.34
2023-02-14T21:07:30.769Z,61.40
2023-02-14T21:09:58.798Z,61.44
2023-02-14T21:12:26.838Z,61.69
2023-02-14T21:14:54.763Z,61.53
2023-02-14T21:17:24.138Z,61.59
2023-02-14T21:19:52.121Z,61.40
2023-02-14T21:22:20.081Z,61.22
2023-02-14T21:24:48.148Z,60.61
2023-02-14T21:27:16.160Z,60.30
2023-02-14T21:29:44.118Z,59.98
2023-02-14T21:32:12.210Z,60.61
2023-02-14T21:34:41.602Z,60.50
2023-02-14T21:37:09.582Z,59.82
2023-02-14T21:39:38.042Z,60.23
2023-02-14T21:42:07.624Z,60.28
2023-02-14T21:44:53.059Z,60.28
2023-02-14T21:47:21.009Z,61.05
2023-02-14T21:50:13.416Z,61.44
2023-02-14T21:52:41.407Z,60.97
2023-02-14T21:55:09.518Z,61.00
2023-02-14T21:57:37.473Z,61.03
2023-02-14T22:00:06.757Z,61.16
2023-02-14T22:02:39.187Z,61.78
2023-02-14T22:05:09.072Z,62.23
2023-02-14T22:07:37.250Z,62.06
2023-02-14T22:10:05.971Z,61.29
2023-02-14T22:12:33.966Z,61.80
2023-02-14T22:15:02.682Z,61.88
2023-02-14T22:17:30.646Z,61.64
2023-02-14T22:19:58.608Z,61.81
2023-02-14T22:22:27.998Z,62.35
2023-02-14T22:24:55.968Z,61.66
2023-02-14T22:27:24.029Z,61.81
2023-02-14T22:29:52.030Z,61.91
2023-02-14T22:32:20.053Z,62.12
2023-02-14T22:34:48.095Z,62.11
2023-02-14T22:37:16.041Z,62.00
2023-02-14T22:39:45.407Z,61.74
2023-02-14T22:42:13.407Z,62.06
2023-02-14T22:44:41.413Z,61.34
2023-02-14T22:47:09.375Z,61.33
2023-02-14T22:49:37.337Z,61.79
2023-02-14T22:52:05.473Z,61.30
2023-02-14T22:54:33.497Z,62.04
2023-02-14T22:57:02.859Z,62.37
2023-02-14T22:59:33.341Z,62.14
2023-02-14T23:02:02.384Z,61.57
2023-02-14T23:04:30.611Z,62.44
2023-02-14T23:06:58.746Z,61.52
2023-02-14T23:09:26.720Z,61.81
2023-02-14T23:11:54.708Z,62.01
2023-02-14T23:14:41.710Z,61.90
2023-02-14T23:17:33.403Z,63.01
2023-02-14T23:20:18.793Z,62.63
2023-02-14T23:22:46.771Z,63.65
2023-02-14T23:25:14.762Z,63.35
2023-02-14T23:27:44.703Z,63.98
2023-02-14T23:30:16.374Z,63.30
2023-02-14T23:32:45.016Z,63.17
2023-02-14T23:35:12.991Z,63.57
2023-02-14T23:37:41.733Z,63.97
2023-02-14T23:40:11.002Z,63.16
2023-02-14T23:42:38.991Z,63.13
2023-02-14T23:45:25.279Z,63.45
2023-02-14T23:47:54.667Z,62.73
2023-02-14T23:50:22.752Z,63.58
2023-02-14T23:52:50.714Z,63.07
2023-02-14T23:55:18.981Z,63.41
2023-02-14T23:57:46.993Z,62.95
